Search for airport 
image banner adimage banner adimage banner ad
image banner ad

EKKV - Klaksvik

Located in Klaksvik, Faroe Islands

ICAO - EKKV, IATA -

Data provided by Airmate  

General information

Coordinates: N62°13'4" W6°34'35"
Elevation is 263 feet MSL.
Magnetic variation is -8.2° East
View others Airports in (unassigned)

Operational data

Special qualification required
Current time UTC:
Current local time:
Weather at : EKVG - Vagar ( 40 km )
METAR: EKVG 070020Z AUTO 17022KT 8000 -RA OVC011/// 05/03 Q0979 RMK BKN013/// WIND SKEID 15036G46KT
TAF: TAF EKVG 061421Z 0615/0621 11013KT 9999 -SHRA SCT010CB BKN017 BECMG 0615/0616 21018KT TEMPO 0615/0621 2000 SHRA BKN005CB BECMG 0616/0618 23025G35KT BECMG 0619/0621 22035G45KT
View NOTAMs / SUP AIP / TFR affecting this airport [VIEW]
Communications frequencies: [VIEW]

Runways:

Airport contact information

Address: Klaksvik Faroe Islands

Satellite view of EKKV